Genesee, Michigan
Current Conditions -  °F | °C
As of 5:05 AM on Thursday 23 Oct 2014 (Local Time) from KFNT Reporting Station
Haze Haze  
Wind Chill: 31°   Ceiling: 100
Heat Index: 31°   Visibility: 0.75mi
Dew Point: 27°   Wind: 3mph
Humidity: 85%   Direction: 250°WSW
Pressure: 30.27"   Gusts: NA
Location:  43.11°N, 83.62°W
Report Text: KFNT 230905Z 25003KT 3/4SM R09/P6000FT BR VV001 M01/M03 A3027 RMK AO2 T10061028
Loading
Personal Weather Stations






























Interactive Weather Map
Tropical Storm Tracking
New forecast layout! Learn more

10-Day Weather Forecast

Advertisements
Track Severe Weather on mobile